• Join FlightAware (Why Join?)
  • Login
  • US Flag 
11:20PM EDT


 

Airport Tracker/Info


-or-


 

Live Flight TrackerFlight Track Log ✈ EJM249 ✈ 03-Oct-2013 ✈ KSDL - KSTP

Flight Track Log - Related Links

Times and Time Zones

All times are in EDT time to prevent confusion due to time zone crossing. See the EJM249 flight status page for this flight to view local times or setup timezone preferences in your user account.

Time Position Orientation Groundspeed Altitude Reporting Facility
EDT Latitude Longitude Course Direction KTS MPH feet Rate Location/Type
10:16AM 33.6500 -111.9000 334° Northwest 175 201 3,900  Level Phoenix TRACON
10:17AM 33.6994 -111.9286 334° Northwest 234 269 6,000 2,160 Climbing Albuquerque Center
10:18AM 33.7753 -111.8989 18° North 295 339 8,300 2,640 Climbing Albuquerque Center
10:19AM 33.8558 -111.8500 27° Northeast 316 364 11,500 3,060 Climbing Albuquerque Center
10:20AM 33.9369 -111.8000 27° Northeast 338 389 14,600 3,000 Climbing Albuquerque Center
10:21AM 34.0361 -111.7389 27° Northeast 356 410 17,800 2,820 Climbing Albuquerque Center
10:22AM 34.1381 -111.6922 21° North 368 423 20,500 2,520 Climbing Albuquerque Center
10:23AM 34.2328 -111.6578 17° North 383 441 23,000 2,400 Climbing Albuquerque Center
10:24AM 34.3386 -111.6161 18° North 393 452 25,500 2,280 Climbing Albuquerque Center
10:25AM 34.4519 -111.5711 18° North 417 480 27,800 1,680 Climbing Albuquerque Center
10:26AM 34.5858 -111.4733 31° Northeast 472 543 29,000 540 Climbing Albuquerque Center
10:27AM 34.6836 -111.3375 49° Northeast 524 603 29,000 720 Level Albuquerque Center
10:28AM 34.7836 -111.1931 50° Northeast 550 633 30,500 1,620 Climbing Albuquerque Center
10:29AM 34.8836 -111.0494 50° Northeast 555 639 32,400 1,860 Climbing Albuquerque Center
10:30AM 34.9828 -110.9075 50° Northeast 551 634 34,400 1,200 Climbing Albuquerque Center
10:32AM 35.0872 -110.7572 50° Northeast 551 634 35,000 240 Climbing Albuquerque Center
10:33AM 35.1961 -110.5842 52° Northeast 570 656 35,000 240 Level Albuquerque Center
10:34AM 35.2917 -110.4400 51° Northeast 570 656 35,500 1,620 Climbing Albuquerque Center
10:35AM 35.3950 -110.2761 52° Northeast 548 631 38,400 2,040 Climbing Albuquerque Center
10:36AM 35.4833 -110.1381 52° Northeast 539 620 39,800 1,200 Climbing Albuquerque Center
10:37AM 35.5869 -109.9753 52° Northeast 540 621 41,000 540 Climbing Albuquerque Center
10:38AM 35.6778 -109.8331 52° Northeast 548 631 41,000  Level Albuquerque Center
10:39AM 35.7694 -109.6878 52° Northeast 557 641 41,000  Level Albuquerque Center
10:40AM 35.8761 -109.5181 52° Northeast 560 644 41,000  Level Albuquerque Center
10:40AM 35.9375 -109.4214 52° Northeast 562 647 41,000  Level Denver Center
10:41AM 36.0286 -109.2747 52° Northeast 560 644 41,000  Level Denver Center
10:42AM 36.1358 -109.1028 52° Northeast 560 644 41,000  Level Denver Center
10:44AM 36.2297 -108.9528 52° Northeast 563 648 41,000  Level Denver Center
10:45AM 36.3383 -108.7772 52° Northeast 565 650 41,000  Level Denver Center
10:46AM 36.4300 -108.6269 53° Northeast 566 651 41,000  Level Denver Center
10:47AM 36.5208 -108.4769 53° Northeast 566 651 41,000  Level Denver Center
10:48AM 36.6269 -108.3019 53° Northeast 566 651 41,000  Level Denver Center
10:49AM 36.7164 -108.1528 53° Northeast 563 648 41,000  Level Denver Center
10:50AM 36.8308 -107.9889 49° Northeast 561 646 41,000  Level Denver Center
10:51AM 36.9322 -107.8542 47° Northeast 556 640 41,000  Level Denver Center
10:52AM 37.0511 -107.6953 47° Northeast 558 642 41,000  Level Denver Center
10:53AM 37.1531 -107.5578 47° Northeast 562 647 41,000  Level Denver Center
10:54AM 37.2708 -107.3986 47° Northeast 557 641 41,000  Level Denver Center
10:55AM 37.3711 -107.2619 47° Northeast 556 640 41,000  Level Denver Center
10:56AM 37.4881 -107.1031 47° Northeast 555 639 41,000  Level Denver Center
10:57AM 37.5875 -106.9650 48° Northeast 558 642 41,000  Level Denver Center
10:58AM 37.7033 -106.8053 47° Northeast 553 636 41,000  Level Denver Center
10:59AM 37.8033 -106.6661 48° Northeast 557 641 41,000  Level Denver Center
11:00AM 37.9175 -106.5075 48° Northeast 558 642 41,000  Level Denver Center
11:01AM 38.0181 -106.3669 48° Northeast 558 642 41,000  Level Denver Center
11:02AM 38.1158 -106.2308 48° Northeast 556 640 41,000  Level Denver Center
11:03AM 38.2328 -106.0653 48° Northeast 554 638 41,000  Level Denver Center
11:04AM 38.3328 -105.9239 48° Northeast 558 642 41,000  Level Denver Center
11:05AM 38.4478 -105.7603 48° Northeast 556 640 41,000  Level Denver Center
11:06AM 38.5444 -105.6208 48° Northeast 551 634 41,000  Level Denver Center
11:07AM 38.6572 -105.4589 48° Northeast 547 629 41,000  Level Denver Center
11:08AM 38.7553 -105.3172 48° Northeast 551 634 41,000  Level Denver Center
11:09AM 38.8692 -105.1522 48° Northeast 552 635 41,000  Level Denver Center
11:10AM 38.9661 -105.0092 49° Northeast 553 636 41,000  Level Denver Center
11:11AM 39.0792 -104.8433 49° Northeast 553 636 41,000  Level Denver Center
11:12AM 39.1819 -104.6925 49° Northeast 556 640 41,000  Level Denver Center
11:13AM 39.2833 -104.5431 49° Northeast 557 641 41,000  Level Denver Center
11:15AM 39.3906 -104.3822 49° Northeast 553 636 41,000  Level Denver Center
11:16AM 39.4911 -104.2317 49° Northeast 555 639 41,000  Level Denver Center
11:17AM 39.5969 -104.0694 50° Northeast 553 636 41,000  Level Denver Center
11:18AM 39.6975 -103.9178 49° Northeast 557 641 41,000  Level Denver Center
11:19AM 39.8053 -103.7544 49° Northeast 556 640 41,000  Level Denver Center
11:20AM 39.8997 -103.6128 49° Northeast 546 628 41,000  Level Denver Center
11:21AM 40.0061 -103.4494 50° Northeast 557 641 41,000  Level Denver Center
11:22AM 40.1022 -103.3039 49° Northeast 552 635 41,000  Level Denver Center
11:23AM 40.2125 -103.1314 50° Northeast 553 636 41,000  Level Denver Center
11:24AM 40.3069 -102.9839 50° Northeast 551 634 41,000  Level Denver Center
11:25AM 40.4178 -102.8111 50° Northeast 553 636 41,000  Level Denver Center
11:26AM 40.5106 -102.6633 50° Northeast 549 632 41,000  Level Denver Center
11:27AM 40.6208 -102.4900 50° Northeast 552 635 41,000  Level Denver Center
11:28AM 40.7150 -102.3417 50° Northeast 553 636 41,000  Level Denver Center
11:29AM 40.8225 -102.1672 51° Northeast 549 632 41,000  Level Denver Center
11:30AM 40.9158 -102.0192 50° Northeast 547 629 41,000  Level Denver Center
11:31AM 41.0231 -101.8453 51° Northeast 545 627 41,000  Level Denver Center
11:32AM 41.1164 -101.6958 50° Northeast 547 629 41,000  Level Denver Center
11:33AM 41.2233 -101.5214 51° Northeast 544 626 41,000  Level Denver Center
11:34AM 41.3147 -101.3719 51° Northeast 543 625 41,000  Level Denver Center
11:35AM 41.4047 -101.2206 52° Northeast 542 624 41,000  Level Denver Center
11:36AM 41.5111 -101.0458 51° Northeast 541 623 41,000  Level Denver Center
11:37AM 41.6000 -100.8964 51° Northeast 536 617 41,000  Level Denver Center
11:38AM 41.7053 -100.7211 51° Northeast 539 620 41,000  Level Denver Center
11:39AM 41.7939 -100.5714 52° Northeast 537 618 41,000  Level Denver Center
11:40AM 41.8964 -100.3914 53° Northeast 543 625 41,000  Level Denver Center
11:41AM 41.9542 -100.2139 66° East 548 631 41,000  Level Minneapolis Center
11:42AM 42.0214 -100.0061 66° East 541 623 41,000  Level Denver Center
11:43AM 42.0817 -99.8328 65° Northeast 536 617 41,000  Level Denver Center
11:45AM 42.1381 -99.6653 66° East 533 613 41,000  Level Denver Center
11:46AM 42.2122 -99.4436 66° East 536 617 41,000  Level Denver Center
11:47AM 42.2761 -99.2622 64° Northeast 535 616 41,000  Level Denver Center
11:48AM 42.3403 -99.0786 65° Northeast 537 618 41,000  Level Denver Center
11:49AM 42.4100 -98.9008 62° Northeast 534 615 41,000  Level Minneapolis Center
11:50AM 42.4869 -98.7261 59° Northeast 538 619 41,000  Level Minneapolis Center
11:51AM 42.5775 -98.5642 53° Northeast 540 621 41,000  Level Minneapolis Center
11:52AM 42.6783 -98.4144 47° Northeast 538 619 41,000  Level Minneapolis Center
11:53AM 42.7794 -98.2647 47° Northeast 536 617 41,000  Level Minneapolis Center
11:54AM 42.8847 -98.1056 48° Northeast 538 619 41,000  Level Minneapolis Center
11:55AM 42.9856 -97.9547 48° Northeast 539 620 41,000  Level Minneapolis Center
11:56AM 43.0861 -97.8019 48° Northeast 541 623 41,000  Level Minneapolis Center
11:57AM 43.2050 -97.6181 48° Northeast 540 621 41,000  Level Minneapolis Center
11:58AM 43.3056 -97.4667 48° Northeast 539 620 41,000  Level Minneapolis Center
11:59AM 43.4053 -97.3122 48° Northeast 540 621 41,000  Level Minneapolis Center
12:00PM 43.5061 -97.1586 48° Northeast 542 624 41,000  Level Minneapolis Center
12:01PM 43.6256 -96.9722 48° Northeast 542 624 41,000  Level Minneapolis Center
12:02PM 43.7261 -96.8150 48° Northeast 545 627 41,000 -180 Level Minneapolis Center
12:03PM 43.8267 -96.6581 48° Northeast 547 629 40,700 -1,320 Descending Minneapolis Center
12:04PM 43.9242 -96.5019 49° Northeast 542 624 38,400 -2,280 Descending Minneapolis Center
12:05PM 44.0219 -96.3472 49° Northeast 537 618 36,100 -2,280 Descending Minneapolis Center
12:06PM 44.1231 -96.1861 49° Northeast 545 627 33,700 -2,460 Descending Minneapolis Center
12:07PM 44.2358 -96.0083 48° Northeast 549 632 31,100 -2,400 Descending Minneapolis Center
12:08PM 44.3333 -95.8506 49° Northeast 544 626 28,800 -2,280 Descending Minneapolis Center
12:09PM 44.4233 -95.6831 53° Northeast 543 625 26,500 -2,280 Descending Minneapolis Center
12:10PM 44.4897 -95.4950 64° Northeast 540 621 24,200 -2,280 Descending Minneapolis Center
12:11PM 44.5411 -95.3019 69° East 532 612 21,900 -2,400 Descending Minneapolis Center
12:12PM 44.6031 -95.0797 69° East 517 595 19,300 -2,340 Descending Minneapolis Center
12:13PM 44.6525 -94.8997 69° East 502 578 17,100 -2,040 Descending Minneapolis Center
12:14PM 44.6986 -94.7286 69° East 480 552 15,100 -2,040 Descending Minneapolis Center
12:15PM 44.7469 -94.5494 69° East 452 520 13,000 -1,860 Descending Minneapolis Center
12:16PM 44.7864 -94.3994 70° East 402 463 11,300 -1,560 Descending Minneapolis Center
12:18PM 44.8189 -94.2808 69° East 320 368 9,800 -1,200 Descending Minneapolis Center
12:19PM 44.8469 -94.1739 70° East 292 336 8,900 -420 Descending Minneapolis Center
12:20PM 44.8817 -94.0706 65° Northeast 292 336 9,000 -300 Climbing Minneapolis Center
12:21PM 44.9211 -93.9686 61° Northeast 296 341 8,300 -1,260 Descending Minneapolis Center
12:22PM 44.9597 -93.8664 62° Northeast 297 342 6,500 -2,520 Descending Minneapolis Center
12:23PM 45.0058 -93.7467 61° Northeast 289 333 3,200 -1,740 Descending Minneapolis Center
12:24PM 45.0397 -93.6564 62° Northeast 265 305 3,000 -120 Descending Minneapolis Center
12:25PM 45.0742 -93.5653 62° Northeast 262 302 3,000  Level Minneapolis Center
12:26PM 45.1097 -93.4725 61° Northeast 266 306 3,000  Level Minneapolis Center
12:27PM 45.1364 -93.3781 68° East 263 303 3,000  Level Minneapolis Center
12:28PM 45.1119 -93.2825 110° East 261 300 3,000  Level Minneapolis Center
12:29PM 45.0764 -93.1947 120° Southeast 260 299 3,000  Level Minneapolis Center
12:30PM 45.0278 -93.1503 147° Southeast 209 241 3,000 -600 Level Minneapolis Center
12:31PM 44.9814 -93.1050 145° Southeast 167 192 1,800 -960 Descending Minneapolis Center
12:32PM 44.9514 -93.0778 147° Southeast 129 148 1,100 -720 Descending Minneapolis Center
12:34PM 44.9333 -93.0500 125° Southeast  Level FlightAware Approximate
12:41PM 44.9346 -93.0603 125° Southeast  Level Estimated